Time;durP1;ratioP1;P1;durP2;ratioP2;P2;SDS_P1;SDS_P2;PMS_P1;PMS_P2;Temp;Humidity;BMP_temperature;BMP_pressure;BME280_temperature;BME280_humidity;BME280_pressure;Samples;Min_cycle;Max_cycle;Signal;HPM_P1;HPM_P2
2022/03/09 00:00:37;;;;;;;14.63;11.50;;;2.10;68.00;;;;;;2082493;28;20068;-67
2022/03/09 00:01:38;;;;;;;13.90;10.57;;;2.10;68.50;;;;;;2077247;28;20549;-67
2022/03/09 00:02:38;;;;;;;15.63;11.15;;;2.00;68.20;;;;;;2076231;28;20467;-67
2022/03/09 00:03:39;;;;;;;14.57;10.40;;;2.00;68.40;;;;;;2077420;28;20478;-67
2022/03/09 00:04:39;;;;;;;16.92;11.50;;;2.00;68.70;;;;;;2074303;28;20021;-67
2022/03/09 00:05:41;;;;;;;12.05;10.05;;;2.00;68.70;;;;;;2077450;28;20029;-67
2022/03/09 00:06:42;;;;;;;14.50;10.85;;;2.00;69.00;;;;;;2075686;28;20038;-67
2022/03/09 00:07:42;;;;;;;16.88;10.65;;;2.00;68.60;;;;;;2077662;28;20116;-67
2022/03/09 00:08:43;;;;;;;13.63;11.40;;;2.00;68.50;;;;;;2079563;28;20026;-67
2022/03/09 00:09:43;;;;;;;17.77;11.57;;;2.00;68.70;;;;;;2076273;28;20029;-67
2022/03/09 00:10:44;;;;;;;15.15;11.40;;;2.00;69.20;;;;;;2073594;28;20517;-67
2022/03/09 00:11:44;;;;;;;14.63;11.07;;;1.90;69.40;;;;;;2072464;28;20032;-67
2022/03/09 00:12:45;;;;;;;12.55;10.45;;;1.90;69.50;;;;;;2071850;28;20057;-67
2022/03/09 00:13:45;;;;;;;13.00;10.60;;;1.90;69.70;;;;;;2073361;28;20027;-67
2022/03/09 00:14:46;;;;;;;13.90;10.65;;;1.90;69.60;;;;;;2073880;28;20034;-67
2022/03/09 00:15:47;;;;;;;13.80;11.32;;;1.90;69.70;;;;;;2080472;28;20025;-67
2022/03/09 00:16:47;;;;;;;14.20;10.43;;;1.90;69.70;;;;;;2075962;28;20054;-67
2022/03/09 00:17:48;;;;;;;16.80;11.27;;;1.80;70.30;;;;;;2078249;28;20475;-67
2022/03/09 00:18:49;;;;;;;14.10;10.88;;;1.80;70.40;;;;;;2081764;28;20025;-67
2022/03/09 00:19:49;;;;;;;17.05;11.07;;;1.80;70.50;;;;;;2078326;28;20029;-67
2022/03/09 00:20:50;;;;;;;18.10;11.90;;;1.80;70.70;;;;;;2075052;28;20110;-67
2022/03/09 00:21:51;;;;;;;17.33;11.25;;;1.80;71.80;;;;;;2072732;28;20437;-67
2022/03/09 00:22:51;;;;;;;14.10;9.98;;;1.80;71.30;;;;;;2076599;28;20104;-67
2022/03/09 00:23:52;;;;;;;13.35;10.57;;;1.80;70.90;;;;;;2079130;28;20017;-66
2022/03/09 00:24:52;;;;;;;13.07;10.25;;;1.80;70.60;;;;;;2076710;28;20056;-67
2022/03/09 00:25:53;;;;;;;11.82;9.85;;;1.70;70.40;;;;;;2076577;28;20024;-67
2022/03/09 00:26:54;;;;;;;14.52;10.80;;;1.70;70.30;;;;;;2080044;28;20104;-67
2022/03/09 00:27:54;;;;;;;11.50;9.75;;;1.70;70.40;;;;;;2076552;28;20033;-67
2022/03/09 00:28:55;;;;;;;13.63;10.02;;;1.70;70.50;;;;;;2075681;28;20105;-67
2022/03/09 00:29:55;;;;;;;13.18;9.80;;;1.70;70.40;;;;;;2076075;28;20025;-67
2022/03/09 00:30:56;;;;;;;14.73;10.85;;;1.70;70.50;;;;;;2081827;28;20048;-67
2022/03/09 00:31:57;;;;;;;15.07;10.95;;;1.70;71.20;;;;;;2080192;28;20024;-67
2022/03/09 00:32:57;;;;;;;14.00;10.68;;;1.70;72.00;;;;;;2079715;28;20029;-66
2022/03/09 00:33:58;;;;;;;13.23;10.20;;;1.70;71.90;;;;;;2079779;28;20036;-67
2022/03/09 00:34:59;;;;;;;16.70;10.85;;;1.70;71.80;;;;;;2074523;28;20129;-67
2022/03/09 00:36:00;;;;;;;14.10;9.70;;;1.70;71.80;;;;;;2077505;28;20025;-67
2022/03/09 00:37:01;;;;;;;11.73;9.27;;;1.70;71.70;;;;;;2076435;28;20061;-67
2022/03/09 00:38:01;;;;;;;14.43;10.23;;;1.70;71.40;;;;;;2073617;28;20075;-67
2022/03/09 00:39:02;;;;;;;13.57;10.50;;;1.60;71.30;;;;;;2076216;28;20818;-67
2022/03/09 00:40:04;;;;;;;14.57;10.40;;;1.60;71.40;;;;;;2079766;28;20029;-67
2022/03/09 00:41:04;;;;;;;15.45;11.13;;;1.60;71.80;;;;;;2080765;28;20021;-66
2022/03/09 00:42:05;;;;;;;14.18;10.00;;;1.60;72.00;;;;;;2079709;28;20028;-67
2022/03/09 00:43:06;;;;;;;14.10;9.98;;;1.60;72.10;;;;;;2075086;28;20025;-67
2022/03/09 00:44:06;;;;;;;14.02;10.20;;;1.60;72.80;;;;;;2077395;28;20037;-67
2022/03/09 00:45:08;;;;;;;15.10;11.07;;;1.60;72.00;;;;;;2078500;28;20026;-66
2022/03/09 00:46:08;;;;;;;11.45;10.23;;;1.60;72.00;;;;;;2075324;28;20205;-67
2022/03/09 00:47:09;;;;;;;12.60;9.98;;;1.60;72.10;;;;;;2084166;28;20020;-67
2022/03/09 00:48:09;;;;;;;13.43;10.05;;;1.60;72.20;;;;;;2077416;28;20429;-66
2022/03/09 00:49:10;;;;;;;12.50;10.48;;;1.50;72.30;;;;;;2080081;28;20021;-67
2022/03/09 00:50:10;;;;;;;16.33;11.38;;;1.50;72.40;;;;;;2080376;28;20064;-67
2022/03/09 00:51:11;;;;;;;13.05;9.80;;;1.50;72.80;;;;;;2076326;28;20018;-66
2022/03/09 00:52:11;;;;;;;15.13;10.25;;;1.50;72.50;;;;;;2078345;28;20584;-67
2022/03/09 00:53:12;;;;;;;12.55;10.00;;;1.50;72.20;;;;;;2078849;28;20454;-67
2022/03/09 00:54:12;;;;;;;15.13;11.25;;;1.50;72.20;;;;;;2079889;28;20033;-67
2022/03/09 00:55:13;;;;;;;15.57;10.05;;;1.50;72.50;;;;;;2083410;28;20044;-67
2022/03/09 00:56:14;;;;;;;13.20;10.38;;;1.50;72.80;;;;;;2071768;28;20475;-67
2022/03/09 00:57:15;;;;;;;11.90;9.48;;;1.50;73.30;;;;;;2072191;28;20156;-67
2022/03/09 00:58:16;;;;;;;13.85;10.48;;;1.40;73.00;;;;;;2076205;28;20029;-67
2022/03/09 00:59:16;;;;;;;17.45;11.05;;;1.40;72.90;;;;;;2077276;28;20029;-67
2022/03/09 01:00:17;;;;;;;11.77;9.80;;;1.40;73.00;;;;;;2078446;28;20029;-67
2022/03/09 01:01:18;;;;;;;14.65;10.27;;;1.40;72.80;;;;;;2077051;28;20371;-67
2022/03/09 01:02:18;;;;;;;13.90;10.20;;;1.40;72.80;;;;;;2072981;28;20516;-66
2022/03/09 01:03:19;;;;;;;16.25;10.93;;;1.40;73.20;;;;;;2082790;28;20029;-67
2022/03/09 01:04:19;;;;;;;14.20;10.13;;;1.40;73.30;;;;;;2077224;28;20021;-67
2022/03/09 01:05:20;;;;;;;12.95;9.95;;;1.40;73.30;;;;;;2081065;28;20021;-67
2022/03/09 01:06:20;;;;;;;13.48;10.88;;;1.40;73.60;;;;;;2077936;28;20107;-67
2022/03/09 01:07:21;;;;;;;14.30;10.73;;;1.40;73.80;;;;;;2073898;28;20550;-67
2022/03/09 01:08:22;;;;;;;13.45;10.35;;;1.40;74.40;;;;;;2076215;28;20088;-67
2022/03/09 01:09:22;;;;;;;13.95;10.57;;;1.40;74.60;;;;;;2073947;28;20056;-67
2022/03/09 01:10:23;;;;;;;13.30;10.55;;;1.30;74.30;;;;;;2077468;28;20422;-67
2022/03/09 01:11:23;;;;;;;14.40;10.52;;;1.40;74.20;;;;;;2080773;28;20397;-66
2022/03/09 01:12:24;;;;;;;13.45;10.50;;;1.30;74.60;;;;;;2078242;28;20030;-67
2022/03/09 01:13:25;;;;;;;13.73;10.48;;;1.30;74.80;;;;;;2081389;28;20033;-67
2022/03/09 01:14:26;;;;;;;12.02;10.27;;;1.30;75.30;;;;;;2073994;28;20112;-67
2022/03/09 01:15:26;;;;;;;13.32;11.00;;;1.30;75.30;;;;;;2078398;28;20034;-67
2022/03/09 01:16:27;;;;;;;16.48;10.98;;;1.30;75.60;;;;;;2078055;28;20037;-67
2022/03/09 01:17:27;;;;;;;13.57;10.38;;;1.30;75.90;;;;;;2074822;28;20038;-67
2022/03/09 01:18:28;;;;;;;15.57;10.88;;;1.30;75.50;;;;;;2076271;28;20025;-67
2022/03/09 01:19:28;;;;;;;13.43;10.60;;;1.30;75.40;;;;;;2082765;28;20091;-67
2022/03/09 01:20:29;;;;;;;13.15;10.10;;;1.30;75.90;;;;;;2079124;28;20030;-67
2022/03/09 01:21:30;;;;;;;14.10;10.48;;;1.20;75.60;;;;;;2080979;28;20033;-67
2022/03/09 01:22:32;;;;;;;16.50;11.05;;;1.20;75.60;;;;;;2075255;28;20041;-67
2022/03/09 01:23:32;;;;;;;16.65;9.93;;;1.20;76.10;;;;;;2081434;28;20167;-67
2022/03/09 01:24:33;;;;;;;14.52;11.77;;;1.20;76.20;;;;;;2076740;28;20099;-67
2022/03/09 01:25:33;;;;;;;14.95;9.82;;;1.20;76.20;;;;;;2074531;28;20025;-67
2022/03/09 01:26:34;;;;;;;17.40;11.80;;;1.20;76.20;;;;;;2075408;28;20084;-67
2022/03/09 01:27:35;;;;;;;16.70;10.75;;;1.20;76.40;;;;;;2075876;28;20030;-67
2022/03/09 01:28:36;;;;;;;15.23;10.23;;;1.20;76.30;;;;;;2076589;28;20470;-67
2022/03/09 01:29:37;;;;;;;14.57;10.68;;;1.20;76.50;;;;;;2078068;28;20362;-67
2022/03/09 01:30:37;;;;;;;14.75;10.90;;;1.10;77.50;;;;;;2077462;28;20390;-66
2022/03/09 01:31:38;;;;;;;16.35;10.95;;;1.10;78.20;;;;;;2075437;28;20032;-67
2022/03/09 01:32:38;;;;;;;15.02;11.27;;;1.10;78.20;;;;;;2077089;28;20633;-67
2022/03/09 01:33:39;;;;;;;13.80;11.30;;;1.10;78.40;;;;;;2074681;28;20022;-67
2022/03/09 01:34:39;;;;;;;12.48;10.13;;;1.10;78.40;;;;;;2077100;28;20105;-67
2022/03/09 01:35:40;;;;;;;13.00;10.50;;;1.10;78.00;;;;;;2076547;28;20034;-67
2022/03/09 01:36:40;;;;;;;14.95;11.50;;;1.10;78.00;;;;;;2077354;28;20492;-67
2022/03/09 01:37:41;;;;;;;13.85;10.15;;;1.10;78.90;;;;;;2074587;28;20389;-67
2022/03/09 01:38:42;;;;;;;14.18;11.02;;;1.00;79.30;;;;;;2074786;28;20100;-67
2022/03/09 01:39:42;;;;;;;13.30;11.30;;;1.00;78.90;;;;;;2076653;28;20030;-67
2022/03/09 01:40:43;;;;;;;13.93;11.45;;;1.00;79.20;;;;;;2076898;28;20022;-67
2022/03/09 01:41:43;;;;;;;16.23;12.23;;;1.00;79.90;;;;;;2078828;28;20029;-67
2022/03/09 01:42:44;;;;;;;17.55;10.85;;;1.00;80.30;;;;;;2075309;28;20064;-67
2022/03/09 01:43:45;;;;;;;17.23;12.32;;;1.00;80.10;;;;;;2077399;28;20025;-67
2022/03/09 01:44:45;;;;;;;14.95;11.32;;;1.00;80.40;;;;;;2077491;28;20036;-67
2022/03/09 01:45:46;;;;;;;16.00;11.18;;;1.00;80.80;;;;;;2073962;28;20448;-67
2022/03/09 01:46:48;;;;;;;14.68;11.82;;;1.00;81.00;;;;;;2078678;28;20060;-67
2022/03/09 01:47:49;;;;;;;14.88;11.55;;;1.00;82.00;;;;;;2075395;28;20048;-67
2022/03/09 01:48:49;;;;;;;16.45;11.63;;;1.00;81.60;;;;;;2075661;28;20021;-67
2022/03/09 01:49:50;;;;;;;15.93;12.05;;;0.90;82.40;;;;;;2082234;28;20040;-67
2022/03/09 01:50:51;;;;;;;13.75;10.75;;;0.90;82.60;;;;;;2079277;28;20505;-67
2022/03/09 01:51:53;;;;;;;13.02;10.75;;;0.90;82.10;;;;;;2078846;28;20409;-67
2022/03/09 01:52:53;;;;;;;15.45;11.73;;;0.90;82.50;;;;;;2083896;28;20750;-67
2022/03/09 01:53:54;;;;;;;15.18;11.90;;;0.90;82.10;;;;;;2079888;28;20472;-67
2022/03/09 01:54:55;;;;;;;15.63;12.23;;;0.90;81.90;;;;;;2077241;28;20018;-67
2022/03/09 01:55:55;;;;;;;14.13;11.05;;;0.90;82.70;;;;;;2073500;28;20052;-67
2022/03/09 01:56:57;;;;;;;15.07;11.30;;;0.90;82.90;;;;;;2071608;28;20489;-67
2022/03/09 01:57:58;;;;;;;14.82;11.07;;;0.80;83.50;;;;;;2073653;28;20097;-67
2022/03/09 01:59:04;;;;;;;13.90;11.40;;;0.90;83.70;;;;;;2077134;28;20025;-67
2022/03/09 02:00:08;;;;;;;15.45;10.85;;;0.90;84.80;;;;;;2080037;28;20036;-67
2022/03/09 02:01:08;;;;;;;14.52;11.20;;;0.80;84.00;;;;;;2081124;28;20025;-67
2022/03/09 02:02:09;;;;;;;15.05;10.60;;;0.80;84.30;;;;;;2077661;28;20021;-67
2022/03/09 02:03:09;;;;;;;15.13;10.60;;;0.80;84.60;;;;;;2077818;28;20087;-67
2022/03/09 02:04:10;;;;;;;16.00;11.02;;;0.80;84.30;;;;;;2076160;28;20032;-67
2022/03/09 02:05:11;;;;;;;13.88;10.68;;;0.80;84.30;;;;;;2077206;28;20018;-66
2022/03/09 02:06:11;;;;;;;12.75;10.43;;;0.80;84.20;;;;;;2082814;28;20644;-66
2022/03/09 02:07:12;;;;;;;16.25;10.65;;;0.80;83.70;;;;;;2081102;28;20101;-66
2022/03/09 02:09:47;;;;;;;16.25;10.15;;;0.80;83.50;;;;;;2079395;28;20108;-66
2022/03/09 02:10:49;;;;;;;14.68;10.98;;;0.80;83.00;;;;;;2078042;28;20083;-66
2022/03/09 02:11:50;;;;;;;13.98;10.43;;;0.80;84.10;;;;;;2076228;28;20211;-67
2022/03/09 02:12:51;;;;;;;15.00;10.80;;;0.70;83.90;;;;;;2077348;28;20025;-67
2022/03/09 02:13:51;;;;;;;14.57;10.93;;;0.80;84.20;;;;;;2079994;28;20024;-67
2022/03/09 02:14:52;;;;;;;15.00;11.30;;;0.80;84.30;;;;;;2081941;28;20968;-67
2022/03/09 02:15:52;;;;;;;13.93;10.55;;;0.80;84.60;;;;;;2078002;28;20013;-66
2022/03/09 02:16:57;;;;;;;14.88;11.25;;;0.80;84.60;;;;;;2076474;28;20021;-67
2022/03/09 02:17:59;;;;;;;12.13;9.65;;;0.70;85.10;;;;;;2076719;28;20025;-66
2022/03/09 02:19:01;;;;;;;15.55;10.80;;;0.70;84.80;;;;;;2077562;28;20465;-66
2022/03/09 02:20:02;;;;;;;14.95;10.52;;;0.70;85.10;;;;;;2076891;28;20029;-66
2022/03/09 02:21:03;;;;;;;14.52;10.02;;;0.70;86.00;;;;;;2075511;28;20037;-66
2022/03/09 02:22:12;;;;;;;13.18;10.95;;;0.70;85.60;;;;;;2071469;28;20061;-66
2022/03/09 02:23:12;;;;;;;13.63;11.30;;;0.70;86.00;;;;;;2079691;28;20535;-66
2022/03/09 02:24:13;;;;;;;13.50;10.82;;;0.70;86.00;;;;;;2080628;28;20424;-67
2022/03/09 02:25:15;;;;;;;17.48;11.02;;;0.70;86.20;;;;;;2077544;28;20033;-67
2022/03/09 02:26:16;;;;;;;12.77;10.25;;;0.70;87.30;;;;;;2079921;28;20022;-67
2022/03/09 02:27:20;;;;;;;14.02;9.98;;;0.70;86.20;;;;;;2078131;28;20096;-66
2022/03/09 02:28:21;;;;;;;12.13;9.10;;;0.60;85.30;;;;;;2076495;28;20382;-67
2022/03/09 02:29:21;;;;;;;14.70;10.52;;;0.60;85.20;;;;;;2074637;28;20616;-66
2022/03/09 02:30:22;;;;;;;13.55;10.30;;;0.70;85.10;;;;;;2073491;28;20022;-67
2022/03/09 02:31:22;;;;;;;14.32;10.32;;;0.70;84.40;;;;;;2080416;28;20100;-66
2022/03/09 02:32:23;;;;;;;14.65;10.50;;;0.70;84.10;;;;;;2080331;28;20029;-66
2022/03/09 02:33:23;;;;;;;14.00;10.30;;;0.70;85.30;;;;;;2076392;28;20061;-66
2022/03/09 02:34:24;;;;;;;13.35;9.90;;;0.70;86.10;;;;;;2076692;28;20835;-67
2022/03/09 02:35:24;;;;;;;11.77;10.25;;;0.60;86.00;;;;;;2073157;28;20033;-66
2022/03/09 02:36:25;;;;;;;14.65;10.45;;;0.60;86.00;;;;;;2079123;28;20029;-66
2022/03/09 02:37:25;;;;;;;14.55;10.82;;;0.60;86.40;;;;;;2075647;28;20029;-66
2022/03/09 02:38:26;;;;;;;13.00;9.77;;;0.60;86.00;;;;;;2075529;28;20057;-66
2022/03/09 02:39:26;;;;;;;12.13;9.27;;;0.60;86.00;;;;;;2082264;28;20024;-66
2022/03/09 02:40:27;;;;;;;13.43;10.13;;;0.60;85.50;;;;;;2080246;28;20040;-66
2022/03/09 02:41:29;;;;;;;14.30;9.73;;;0.60;86.90;;;;;;2077093;28;20124;-66
2022/03/09 02:42:30;;;;;;;14.23;10.02;;;0.60;87.30;;;;;;2080904;28;20030;-66
2022/03/09 02:43:30;;;;;;;11.85;10.00;;;0.60;86.90;;;;;;2076102;28;20473;-66
2022/03/09 02:44:31;;;;;;;12.82;9.55;;;0.60;86.50;;;;;;2077584;28;20017;-67
2022/03/09 02:45:31;;;;;;;14.52;10.85;;;0.60;85.70;;;;;;2076172;28;20026;-66
2022/03/09 02:46:32;;;;;;;13.90;10.65;;;0.60;86.10;;;;;;2081235;28;20485;-66
2022/03/09 02:47:33;;;;;;;12.50;10.13;;;0.60;86.60;;;;;;2082281;28;20048;-67
2022/03/09 02:48:33;;;;;;;12.93;9.98;;;0.60;87.40;;;;;;2078703;28;20053;-66
2022/03/09 02:49:34;;;;;;;13.57;10.63;;;0.60;88.00;;;;;;2077715;28;20037;-66
2022/03/09 02:50:34;;;;;;;13.50;10.40;;;0.50;87.30;;;;;;2078661;28;20030;-66
2022/03/09 02:51:35;;;;;;;12.52;9.77;;;0.60;86.90;;;;;;2073881;28;20053;-66
2022/03/09 02:52:38;;;;;;;13.90;10.05;;;0.60;86.70;;;;;;2076840;28;20408;-66
2022/03/09 02:53:48;;;;;;;13.07;9.95;;;0.60;87.40;;;;;;2077854;28;20030;-66
2022/03/09 02:54:49;;;;;;;12.18;9.52;;;0.60;89.20;;;;;;2068712;28;20052;-66
2022/03/09 02:55:50;;;;;;;13.55;10.20;;;0.50;87.50;;;;;;2072059;28;21378;-67
2022/03/09 02:56:50;;;;;;;11.57;9.95;;;0.50;87.90;;;;;;2072659;28;20018;-67
2022/03/09 02:57:51;;;;;;;13.38;9.85;;;0.50;87.60;;;;;;2074508;28;20100;-66
2022/03/09 02:58:51;;;;;;;12.23;10.18;;;0.50;87.20;;;;;;2077860;28;20021;-66
2022/03/09 02:59:52;;;;;;;15.65;10.18;;;0.50;88.10;;;;;;2075268;28;20033;-67
2022/03/09 03:00:52;;;;;;;14.38;10.60;;;0.50;88.10;;;;;;2076144;28;20026;-66
2022/03/09 03:01:53;;;;;;;14.05;10.30;;;0.50;88.50;;;;;;2076392;28;20021;-66
2022/03/09 03:02:53;;;;;;;11.93;9.98;;;0.50;88.70;;;;;;2080810;28;20350;-67
2022/03/09 03:03:54;;;;;;;12.13;8.95;;;0.50;89.20;;;;;;2076662;28;20025;-66
2022/03/09 03:04:55;;;;;;;13.23;9.90;;;0.50;88.50;;;;;;2078323;28;20017;-66
2022/03/09 03:05:55;;;;;;;15.23;9.65;;;0.50;88.00;;;;;;2079175;28;20049;-66
2022/03/09 03:06:56;;;;;;;14.07;9.77;;;0.50;88.20;;;;;;2077932;28;20022;-66
2022/03/09 03:07:56;;;;;;;17.83;9.85;;;0.50;88.50;;;;;;2077367;28;20098;-66
2022/03/09 03:08:57;;;;;;;11.27;9.50;;;0.50;89.10;;;;;;2076525;28;20473;-66
2022/03/09 03:09:57;;;;;;;13.32;9.82;;;0.50;89.00;;;;;;2080412;28;20013;-67
2022/03/09 03:10:58;;;;;;;13.32;10.02;;;0.40;89.10;;;;;;2080882;28;20017;-66
2022/03/09 03:11:58;;;;;;;11.48;9.38;;;0.40;89.30;;;;;;2079375;28;20666;-66
2022/03/09 03:12:59;;;;;;;11.48;9.57;;;0.50;89.30;;;;;;2078780;28;20109;-66
2022/03/09 03:13:59;;;;;;;12.63;9.60;;;0.40;89.10;;;;;;2075507;28;20022;-66
2022/03/09 03:15:00;;;;;;;11.75;9.35;;;0.40;89.50;;;;;;2077215;28;20036;-67
2022/03/09 03:16:01;;;;;;;12.88;9.13;;;0.40;89.60;;;;;;2076611;28;20037;-66
2022/03/09 03:17:02;;;;;;;12.93;9.30;;;0.40;89.50;;;;;;2079437;28;20036;-66
2022/03/09 03:18:04;;;;;;;13.85;10.10;;;0.40;90.00;;;;;;2080791;28;20527;-66
2022/03/09 03:19:04;;;;;;;12.90;10.45;;;0.40;90.30;;;;;;2077402;28;20536;-66
2022/03/09 03:20:06;;;;;;;13.32;10.00;;;0.40;90.40;;;;;;2084091;28;20388;-66
2022/03/09 03:21:07;;;;;;;15.70;8.77;;;0.40;90.40;;;;;;2082397;28;20032;-67
2022/03/09 03:22:07;;;;;;;15.27;9.88;;;0.30;90.30;;;;;;2074271;28;20041;-66
2022/03/09 03:23:08;;;;;;;11.25;9.50;;;0.30;90.30;;;;;;2077879;28;20487;-67
2022/03/09 03:24:08;;;;;;;11.13;9.93;;;0.30;90.30;;;;;;2078196;28;20022;-66
2022/03/09 03:25:09;;;;;;;11.32;9.27;;;0.30;90.60;;;;;;2077439;28;20091;-67
2022/03/09 03:26:09;;;;;;;14.63;9.30;;;0.30;90.50;;;;;;2081805;28;20097;-66
2022/03/09 03:27:10;;;;;;;12.60;8.98;;;0.30;90.40;;;;;;2079610;28;20024;-67
2022/03/09 03:28:10;;;;;;;10.88;8.93;;;0.30;90.10;;;;;;2079742;28;20022;-67
2022/03/09 03:29:11;;;;;;;14.65;9.35;;;0.30;89.40;;;;;;2079880;28;20117;-66
2022/03/09 03:30:11;;;;;;;11.82;9.52;;;0.30;89.30;;;;;;2075123;28;20030;-66
2022/03/09 03:31:12;;;;;;;9.90;8.38;;;0.30;89.00;;;;;;2077677;28;20525;-67
2022/03/09 03:32:13;;;;;;;11.48;9.35;;;0.30;89.70;;;;;;2076093;28;20018;-66
2022/03/09 03:33:15;;;;;;;11.77;8.90;;;0.30;90.00;;;;;;2080806;28;20029;-66
2022/03/09 03:34:15;;;;;;;12.10;9.25;;;0.30;90.20;;;;;;2082372;28;20032;-67
2022/03/09 03:35:16;;;;;;;11.57;9.02;;;0.30;90.20;;;;;;2075659;28;20029;-67
2022/03/09 03:36:17;;;;;;;10.75;8.80;;;0.30;90.10;;;;;;2081270;28;20029;-66
2022/03/09 03:37:18;;;;;;;11.15;9.32;;;0.30;89.90;;;;;;2074156;28;20494;-67
2022/03/09 03:38:18;;;;;;;10.90;8.95;;;0.30;90.20;;;;;;2075515;28;20408;-66
2022/03/09 03:39:19;;;;;;;10.38;8.60;;;0.20;90.60;;;;;;2076928;28;20034;-66
2022/03/09 03:40:19;;;;;;;11.75;8.63;;;0.30;90.40;;;;;;2076321;28;20390;-66
2022/03/09 03:41:20;;;;;;;11.88;8.93;;;0.20;90.20;;;;;;2079966;28;20113;-67
2022/03/09 03:42:21;;;;;;;11.65;9.18;;;0.20;90.40;;;;;;2081756;28;20112;-67
2022/03/09 03:43:21;;;;;;;11.20;8.70;;;0.20;90.90;;;;;;2073982;28;20026;-66
2022/03/09 03:44:22;;;;;;;12.73;8.95;;;0.20;90.40;;;;;;2081377;28;20014;-66
2022/03/09 03:45:22;;;;;;;10.98;9.25;;;0.20;90.10;;;;;;2078540;28;20028;-66
2022/03/09 03:46:23;;;;;;;13.10;9.93;;;0.20;90.10;;;;;;2080834;28;20053;-66
2022/03/09 03:47:23;;;;;;;11.40;9.25;;;0.20;90.70;;;;;;2080785;28;20037;-67
2022/03/09 03:48:24;;;;;;;11.00;8.30;;;0.20;90.80;;;;;;2076586;28;20059;-67
2022/03/09 03:49:25;;;;;;;15.13;10.10;;;0.20;90.50;;;;;;2083166;28;20060;-67
2022/03/09 03:50:26;;;;;;;13.23;9.85;;;0.20;90.50;;;;;;2081505;28;20575;-67
2022/03/09 03:51:26;;;;;;;13.68;9.15;;;0.10;91.30;;;;;;2080581;28;20034;-67
2022/03/09 03:52:27;;;;;;;12.15;9.10;;;0.10;91.10;;;;;;2080808;28;20034;-67
2022/03/09 03:53:28;;;;;;;11.68;9.05;;;0.10;91.50;;;;;;2079467;28;20040;-66
2022/03/09 03:54:28;;;;;;;12.70;9.38;;;0.10;91.50;;;;;;2076723;28;20026;-67
2022/03/09 03:55:29;;;;;;;12.90;9.32;;;0.10;92.00;;;;;;2076492;28;20034;-66
2022/03/09 03:56:29;;;;;;;12.98;9.85;;;0.10;91.90;;;;;;2075104;28;20065;-66
2022/03/09 03:57:30;;;;;;;11.32;8.75;;;0.10;92.30;;;;;;2074076;28;20061;-66
2022/03/09 03:58:30;;;;;;;15.13;9.43;;;0.10;91.90;;;;;;2073766;28;20026;-67
2022/03/09 03:59:31;;;;;;;10.25;9.15;;;0.00;91.70;;;;;;2077156;28;20151;-66
2022/03/09 04:00:31;;;;;;;11.95;9.02;;;0.00;91.50;;;;;;2077937;28;20040;-66
2022/03/09 04:01:32;;;;;;;11.13;9.13;;;0.00;91.90;;;;;;2076731;28;20040;-66
2022/03/09 04:02:32;;;;;;;11.25;9.27;;;0.00;91.50;;;;;;2078836;28;20060;-67
2022/03/09 04:03:33;;;;;;;10.23;8.30;;;0.00;91.30;;;;;;2075659;28;20026;-66
2022/03/09 04:04:33;;;;;;;10.60;8.90;;;0.00;91.60;;;;;;2073873;28;20044;-66
2022/03/09 04:05:34;;;;;;;12.68;8.75;;;0.00;91.50;;;;;;2080614;28;20029;-66
2022/03/09 04:06:34;;;;;;;10.80;8.45;;;0.00;91.60;;;;;;2081543;28;20029;-67
2022/03/09 04:07:35;;;;;;;11.40;9.00;;;0.00;91.30;;;;;;2077106;28;20030;-70
2022/03/09 04:08:36;;;;;;;11.45;8.98;;;0.00;91.90;;;;;;2077404;28;20022;-67
2022/03/09 04:09:36;;;;;;;12.25;8.95;;;0.00;92.20;;;;;;2073278;28;20030;-66
2022/03/09 04:10:37;;;;;;;9.90;8.18;;;0.00;92.80;;;;;;2078984;28;20446;-66
2022/03/09 04:11:38;;;;;;;11.38;8.85;;;0.00;92.60;;;;;;2075140;28;20341;-66
2022/03/09 04:12:38;;;;;;;10.40;8.48;;;0.00;92.50;;;;;;2075350;28;20651;-66
2022/03/09 04:13:39;;;;;;;9.30;7.70;;;0.00;92.90;;;;;;2082400;28;20048;-67
2022/03/09 04:14:40;;;;;;;10.90;8.88;;;0.00;93.00;;;;;;2079824;28;20021;-66
2022/03/09 04:15:40;;;;;;;11.65;8.70;;;-0.10;92.70;;;;;;2076789;28;20507;-67
2022/03/09 04:16:41;;;;;;;13.98;10.02;;;-0.10;92.70;;;;;;2078245;28;20053;-67
2022/03/09 04:17:46;;;;;;;13.45;9.02;;;-0.10;92.80;;;;;;2073866;28;20088;-67
2022/03/09 04:18:47;;;;;;;10.30;7.85;;;-0.10;93.70;;;;;;2077779;28;20215;-66
2022/03/09 04:19:47;;;;;;;12.32;9.52;;;-0.10;93.10;;;;;;2075252;28;20022;-66
2022/03/09 04:20:48;;;;;;;13.52;9.15;;;-0.10;93.60;;;;;;2077911;28;20499;-66
2022/03/09 04:21:48;;;;;;;19.10;9.43;;;-0.10;93.80;;;;;;2078955;28;20037;-66
2022/03/09 04:22:49;;;;;;;11.50;9.60;;;-0.10;94.00;;;;;;2075070;28;20029;-67
2022/03/09 04:23:50;;;;;;;10.82;8.65;;;-0.10;94.20;;;;;;2080423;28;20159;-67
2022/03/09 04:24:51;;;;;;;11.68;8.55;;;-0.10;94.40;;;;;;2078640;28;20107;-66
2022/03/09 04:25:51;;;;;;;12.80;9.02;;;-0.10;94.30;;;;;;2076149;28;20162;-66
2022/03/09 04:26:52;;;;;;;10.90;8.38;;;-0.10;94.60;;;;;;2079686;28;20091;-66
2022/03/09 04:27:53;;;;;;;11.20;9.40;;;-0.10;94.90;;;;;;2076441;28;20021;-66
2022/03/09 04:28:53;;;;;;;10.27;8.73;;;-0.10;95.20;;;;;;2079164;28;20025;-66
2022/03/09 04:29:54;;;;;;;12.90;8.88;;;-0.10;95.20;;;;;;2076392;28;20635;-66
2022/03/09 04:30:54;;;;;;;12.30;8.75;;;-0.20;95.50;;;;;;2079033;28;20577;-66
2022/03/09 04:31:55;;;;;;;11.57;9.00;;;-0.20;95.60;;;;;;2082132;28;20024;-67
2022/03/09 04:32:55;;;;;;;10.23;8.38;;;-0.20;95.80;;;;;;2080485;28;20026;-66
2022/03/09 04:33:56;;;;;;;13.00;9.55;;;-0.20;95.80;;;;;;2078724;28;20030;-67
2022/03/09 04:34:57;;;;;;;11.65;8.40;;;-0.20;96.10;;;;;;2073383;28;20061;-66
2022/03/09 04:35:57;;;;;;;11.07;8.68;;;-0.20;96.40;;;;;;2079842;28;20542;-66
2022/03/09 04:36:58;;;;;;;11.88;8.82;;;-0.20;96.70;;;;;;2081027;28;20425;-67
2022/03/09 04:37:58;;;;;;;10.50;8.45;;;-0.20;97.00;;;;;;2080099;28;20052;-66
2022/03/09 04:38:59;;;;;;;13.23;9.98;;;-0.20;97.30;;;;;;2079313;28;20108;-66
2022/03/09 04:40:04;;;;;;;13.98;8.40;;;-0.20;97.50;;;;;;2081251;28;20021;-66
2022/03/09 04:41:04;;;;;;;10.73;8.38;;;-0.20;98.30;;;;;;2078031;28;20112;-66
2022/03/09 04:42:05;;;;;;;9.30;7.78;;;-0.20;97.80;;;;;;2077643;28;20025;-66
2022/03/09 04:43:06;;;;;;;12.10;8.43;;;-0.20;97.80;;;;;;2074482;28;20123;-66
2022/03/09 04:44:07;;;;;;;10.73;8.00;;;-0.20;97.80;;;;;;2081864;28;20048;-66
2022/03/09 04:45:08;;;;;;;12.32;9.05;;;-0.20;98.10;;;;;;2081415;28;20032;-66
2022/03/09 04:46:09;;;;;;;12.13;8.23;;;-0.20;98.50;;;;;;2080548;28;20033;-67
2022/03/09 04:47:09;;;;;;;11.05;8.23;;;-0.20;98.50;;;;;;2082551;28;20478;-66
2022/03/09 04:48:10;;;;;;;12.30;8.80;;;-0.20;98.40;;;;;;2079489;28;20018;-67
2022/03/09 04:49:10;;;;;;;13.63;8.48;;;-0.20;98.60;;;;;;2078563;28;20096;-66
2022/03/09 04:50:11;;;;;;;12.55;9.20;;;-0.20;98.60;;;;;;2077834;28;20083;-66
2022/03/09 04:51:11;;;;;;;11.55;8.57;;;-0.20;98.60;;;;;;2074405;28;20080;-66
2022/03/09 04:52:12;;;;;;;15.50;9.05;;;-0.20;98.40;;;;;;2082660;28;20033;-67
2022/03/09 04:53:13;;;;;;;16.98;9.32;;;-0.20;98.10;;;;;;2082079;28;20033;-66
2022/03/09 04:54:13;;;;;;;9.93;8.48;;;-0.20;98.00;;;;;;2079806;28;20050;-66
2022/03/09 04:55:14;;;;;;;10.98;8.00;;;-0.20;97.90;;;;;;2075616;28;20030;-66
2022/03/09 04:56:15;;;;;;;10.10;8.00;;;-0.20;97.90;;;;;;2075049;28;20026;-66
2022/03/09 04:57:16;;;;;;;12.68;8.35;;;-0.20;97.70;;;;;;2073127;28;20033;-67
2022/03/09 04:58:16;;;;;;;14.45;8.85;;;-0.20;97.60;;;;;;2074469;28;20030;-67
2022/03/09 04:59:17;;;;;;;9.70;7.93;;;-0.20;97.70;;;;;;2075139;28;20053;-66
2022/03/09 05:00:18;;;;;;;9.82;8.23;;;-0.20;97.40;;;;;;2083294;28;20029;-66
2022/03/09 05:01:18;;;;;;;10.80;8.30;;;-0.20;97.30;;;;;;2075284;28;20083;-66
2022/03/09 05:02:19;;;;;;;12.55;8.50;;;-0.20;97.60;;;;;;2079356;28;20108;-66
2022/03/09 05:03:19;;;;;;;9.50;8.35;;;-0.20;97.90;;;;;;2078545;28;20091;-66
2022/03/09 05:04:20;;;;;;;13.65;8.82;;;-0.20;97.60;;;;;;2073804;28;20482;-66
2022/03/09 05:05:20;;;;;;;10.48;8.43;;;-0.20;97.70;;;;;;2076399;28;20028;-66
2022/03/09 05:06:21;;;;;;;13.25;9.63;;;-0.20;97.70;;;;;;2077490;28;20750;-66
2022/03/09 05:07:21;;;;;;;14.23;8.95;;;-0.20;97.70;;;;;;2076247;28;20029;-67
2022/03/09 05:08:22;;;;;;;13.65;9.18;;;-0.20;97.70;;;;;;2073373;28;20108;-66
2022/03/09 05:09:23;;;;;;;12.38;8.88;;;-0.20;97.70;;;;;;2075946;28;20411;-66
2022/03/09 05:10:23;;;;;;;9.95;8.68;;;-0.20;97.80;;;;;;2080145;28;20151;-66
2022/03/09 05:11:24;;;;;;;10.15;8.27;;;-0.20;97.70;;;;;;2080499;28;20021;-67
2022/03/09 05:12:24;;;;;;;12.32;8.43;;;-0.20;97.70;;;;;;2076553;28;20049;-66
2022/03/09 05:13:25;;;;;;;14.07;8.48;;;-0.20;97.70;;;;;;2077747;28;20530;-66
2022/03/09 05:14:25;;;;;;;12.05;8.63;;;-0.20;97.70;;;;;;2072168;28;20033;-66
2022/03/09 05:15:26;;;;;;;13.63;9.18;;;-0.20;97.80;;;;;;2072412;28;20053;-66